Time;durP1;ratioP1;P1;durP2;ratioP2;P2;SDS_P1;SDS_P2;PMS_P1;PMS_P2;Temp;Humidity;BMP_temperature;BMP_pressure;BME280_temperature;BME280_humidity;BME280_pressure;Samples;Min_cycle;Max_cycle;Signal;HPM_P1;HPM_P2
2023/10/27 00:01:15;;;;;;;38.70;34.50;;;;;;;;;;5071828;28;20449;-79
2023/10/27 00:03:42;;;;;;;35.80;32.17;;;;;;;;;;5071605;28;20516;-77
2023/10/27 00:06:09;;;;;;;43.93;34.60;;;;;;;;;;5071367;28;20446;-78
2023/10/27 00:08:36;;;;;;;40.33;34.80;;;;;;;;;;5071532;28;20465;-78
2023/10/27 00:11:08;;;;;;;41.60;35.47;;;;;;;;;;5071161;28;21235;-78
2023/10/27 00:13:35;;;;;;;37.53;33.57;;;;;;;;;;5071609;28;20453;-78
2023/10/27 00:16:07;;;;;;;44.00;34.27;;;;;;;;;;5071018;28;20421;-78
2023/10/27 00:18:34;;;;;;;39.57;33.53;;;;;;;;;;5071455;28;20477;-78
2023/10/27 00:21:01;;;;;;;34.73;31.47;;;;;;;;;;5071015;28;21003;-77
2023/10/27 00:23:28;;;;;;;35.23;31.77;;;;;;;;;;5070783;28;20814;-78
2023/10/27 00:25:55;;;;;;;36.07;31.17;;;;;;;;;;5070629;28;20489;-78
2023/10/27 00:28:23;;;;;;;34.10;30.70;;;;;;;;;;5071160;28;20462;-78
2023/10/27 00:30:50;;;;;;;34.30;30.80;;;;;;;;;;5071304;28;20441;-78
2023/10/27 00:33:17;;;;;;;34.57;31.10;;;;;;;;;;5071138;28;20438;-78
2023/10/27 00:35:44;;;;;;;37.63;33.60;;;;;;;;;;5070755;28;20449;-77
2023/10/27 00:38:11;;;;;;;36.77;33.23;;;;;;;;;;5071242;28;20465;-77
2023/10/27 00:40:38;;;;;;;36.67;32.97;;;;;;;;;;5070565;28;20423;-79
2023/10/27 00:43:07;;;;;;;34.53;31.17;;;;;;;;;;5070694;28;20994;-77
2023/10/27 00:45:36;;;;;;;34.23;30.93;;;;;;;;;;5070169;28;20464;-77
2023/10/27 00:48:03;;;;;;;34.57;30.97;;;;;;;;;;5070867;28;20816;-78
2023/10/27 00:50:30;;;;;;;33.70;30.30;;;;;;;;;;5070485;28;20942;-77
2023/10/27 00:52:57;;;;;;;37.00;33.10;;;;;;;;;;5070720;28;20441;-78
2023/10/27 00:55:24;;;;;;;33.70;30.20;;;;;;;;;;5070181;28;20450;-78
2023/10/27 00:57:54;;;;;;;37.97;32.40;;;;;;;;;;5070624;28;20476;-79
2023/10/27 01:00:21;;;;;;;35.73;32.00;;;;;;;;;;5070123;28;20913;-78
2023/10/27 01:02:49;;;;;;;35.23;31.57;;;;;;;;;;5070572;28;20449;-78
2023/10/27 01:05:16;;;;;;;34.47;31.13;;;;;;;;;;5069581;28;20489;-78
2023/10/27 01:07:43;;;;;;;32.67;29.57;;;;;;;;;;5070458;28;20547;-78
2023/10/27 01:10:11;;;;;;;33.47;30.13;;;;;;;;;;5070353;28;20454;-77
2023/10/27 01:12:38;;;;;;;33.50;30.13;;;;;;;;;;5070385;28;20449;-78
2023/10/27 01:15:05;;;;;;;31.57;28.53;;;;;;;;;;5069714;28;20464;-77
2023/10/27 01:17:32;;;;;;;35.67;31.77;;;;;;;;;;5070279;28;20447;-77
2023/10/27 01:20:00;;;;;;;34.43;30.77;;;;;;;;;;5054603;28;20454;-78
2023/10/27 01:22:27;;;;;;;32.00;27.97;;;;;;;;;;5050480;28;20424;-78
2023/10/27 01:24:56;;;;;;;34.00;30.70;;;;;;;;;;5049467;28;21009;-79
2023/10/27 01:27:23;;;;;;;32.80;29.63;;;;;;;;;;5050287;28;20501;-78
2023/10/27 01:29:50;;;;;;;31.60;28.77;;;;;;;;;;5050073;28;20811;-78
2023/10/27 01:32:17;;;;;;;34.47;31.37;;;;;;;;;;5050367;28;20446;-77
2023/10/27 01:34:44;;;;;;;33.57;30.13;;;;;;;;;;5049906;28;20465;-78
2023/10/27 01:37:11;;;;;;;34.67;31.23;;;;;;;;;;5050325;28;20477;-77
2023/10/27 01:39:38;;;;;;;32.30;29.20;;;;;;;;;;5050191;28;20425;-77
2023/10/27 01:42:07;;;;;;;33.37;30.07;;;;;;;;;;5049876;28;20496;-79
2023/10/27 01:44:34;;;;;;;34.30;31.00;;;;;;;;;;5049656;28;20486;-78
2023/10/27 01:47:01;;;;;;;32.70;29.53;;;;;;;;;;5050152;28;20474;-79
2023/10/27 01:49:28;;;;;;;32.63;29.53;;;;;;;;;;5050241;28;20526;-78
2023/10/27 01:51:55;;;;;;;33.73;30.27;;;;;;;;;;5050213;28;20504;-77
2023/10/27 01:54:22;;;;;;;32.60;29.43;;;;;;;;;;5049714;28;20442;-77
2023/10/27 01:56:49;;;;;;;32.00;29.30;;;;;;;;;;5050204;28;20501;-78
2023/10/27 01:59:18;;;;;;;30.97;27.90;;;;;;;;;;5050363;28;20458;-78
2023/10/27 02:01:45;;;;;;;31.07;28.20;;;;;;;;;;5049981;28;20458;-78
2023/10/27 02:04:12;;;;;;;32.37;29.43;;;;;;;;;;5049711;28;20504;-77
2023/10/27 02:06:39;;;;;;;32.40;29.23;;;;;;;;;;5049963;28;20486;-78
2023/10/27 02:09:06;;;;;;;32.33;29.30;;;;;;;;;;5050059;28;20454;-77
2023/10/27 02:11:33;;;;;;;32.57;29.60;;;;;;;;;;5049957;28;20463;-78
2023/10/27 02:14:00;;;;;;;31.37;28.77;;;;;;;;;;5049104;28;20931;-78
2023/10/27 02:16:28;;;;;;;30.40;27.80;;;;;;;;;;5049813;28;20455;-78
2023/10/27 02:18:55;;;;;;;30.63;28.00;;;;;;;;;;5049836;28;20435;-78
2023/10/27 02:21:22;;;;;;;28.93;26.53;;;;;;;;;;5049959;28;20454;-77
2023/10/27 02:23:49;;;;;;;30.50;27.83;;;;;;;;;;5049091;28;21128;-78
2023/10/27 02:26:16;;;;;;;31.27;28.57;;;;;;;;;;5049479;28;20539;-78
2023/10/27 02:28:43;;;;;;;29.00;26.70;;;;;;;;;;5049478;28;20592;-78
2023/10/27 02:31:10;;;;;;;30.57;27.87;;;;;;;;;;5049579;28;20480;-78
2023/10/27 02:33:39;;;;;;;28.57;26.20;;;;;;;;;;5049482;28;20501;-79
2023/10/27 02:36:06;;;;;;;30.30;27.57;;;;;;;;;;5049081;28;20442;-76
2023/10/27 02:38:33;;;;;;;28.60;26.50;;;;;;;;;;5049202;28;20441;-77
2023/10/27 02:41:07;;;;;;;31.57;28.37;;;;;;;;;;5049319;28;20487;-79
2023/10/27 02:43:34;;;;;;;29.50;26.90;;;;;;;;;;5049158;28;20965;-77
2023/10/27 02:46:02;;;;;;;29.50;27.10;;;;;;;;;;5048899;28;20569;-78
2023/10/27 02:48:29;;;;;;;30.00;27.03;;;;;;;;;;5052437;28;20470;-78
2023/10/27 02:50:57;;;;;;;29.50;27.00;;;;;;;;;;5052863;28;20982;-77
2023/10/27 02:53:24;;;;;;;30.30;27.90;;;;;;;;;;5053217;28;20450;-78
2023/10/27 02:55:51;;;;;;;31.50;28.57;;;;;;;;;;5052656;28;20847;-77
2023/10/27 02:58:18;;;;;;;31.93;29.23;;;;;;;;;;5053109;28;20474;-77
2023/10/27 03:00:46;;;;;;;29.87;27.40;;;;;;;;;;5052889;28;20489;-77
2023/10/27 03:03:13;;;;;;;29.53;27.10;;;;;;;;;;5053185;28;20442;-77
2023/10/27 03:05:40;;;;;;;28.67;26.27;;;;;;;;;;5052446;28;21316;-79
2023/10/27 03:08:08;;;;;;;32.13;29.27;;;;;;;;;;5052641;28;20474;-78
2023/10/27 03:10:35;;;;;;;29.70;27.10;;;;;;;;;;5052718;28;20460;-77
2023/10/27 03:13:08;;;;;;;30.80;27.93;;;;;;;;;;5053020;28;20439;-78
2023/10/27 03:15:35;;;;;;;31.43;28.63;;;;;;;;;;5052414;28;20487;-78
2023/10/27 03:18:02;;;;;;;31.33;28.43;;;;;;;;;;5052976;28;20474;-79
2023/10/27 03:20:29;;;;;;;30.03;27.27;;;;;;;;;;5052243;28;20448;-78
2023/10/27 03:22:56;;;;;;;30.47;28.07;;;;;;;;;;5052740;28;20450;-78
2023/10/27 03:25:25;;;;;;;31.47;28.47;;;;;;;;;;5051770;28;20490;-79
2023/10/27 03:27:52;;;;;;;31.17;28.67;;;;;;;;;;5052501;28;20463;-78
2023/10/27 03:30:19;;;;;;;31.37;28.60;;;;;;;;;;5052669;28;20435;-78
2023/10/27 03:32:46;;;;;;;32.17;29.50;;;;;;;;;;5052634;28;20466;-78
2023/10/27 03:35:14;;;;;;;31.73;29.13;;;;;;;;;;5051659;28;20928;-78
2023/10/27 03:37:41;;;;;;;29.93;27.23;;;;;;;;;;5052444;28;20473;-79
2023/10/27 03:40:08;;;;;;;30.87;28.17;;;;;;;;;;5052505;28;20461;-77
2023/10/27 03:42:37;;;;;;;31.90;29.50;;;;;;;;;;5052554;28;20572;-77
2023/10/27 03:45:04;;;;;;;30.97;28.57;;;;;;;;;;5052152;28;20445;-78
2023/10/27 03:47:31;;;;;;;30.80;28.20;;;;;;;;;;5052390;28;20475;-78
2023/10/27 03:49:58;;;;;;;29.60;27.30;;;;;;;;;;5052216;28;20449;-78
2023/10/27 03:52:25;;;;;;;29.83;27.23;;;;;;;;;;5051987;28;20462;-78
2023/10/27 03:54:52;;;;;;;30.57;28.10;;;;;;;;;;5051642;28;20500;-77
2023/10/27 03:57:19;;;;;;;29.77;27.53;;;;;;;;;;5051828;28;21061;-77
2023/10/27 03:59:48;;;;;;;32.80;30.00;;;;;;;;;;5051091;28;20515;-78
2023/10/27 04:02:16;;;;;;;29.40;27.00;;;;;;;;;;5052369;28;20459;-80
2023/10/27 04:04:43;;;;;;;31.33;28.70;;;;;;;;;;5051141;28;20431;-78
2023/10/27 04:07:10;;;;;;;33.90;30.70;;;;;;;;;;5051361;28;20502;-78
2023/10/27 04:09:37;;;;;;;32.97;29.57;;;;;;;;;;5051414;28;20507;-78
2023/10/27 04:12:06;;;;;;;33.47;30.57;;;;;;;;;;5051632;28;20455;-78
2023/10/27 04:14:33;;;;;;;30.53;28.13;;;;;;;;;;5051345;28;20450;-78
2023/10/27 04:17:02;;;;;;;33.07;30.03;;;;;;;;;;5051889;28;20470;-78
2023/10/27 04:19:29;;;;;;;33.57;30.47;;;;;;;;;;5051650;28;20454;-78
2023/10/27 04:21:56;;;;;;;33.20;30.30;;;;;;;;;;5051650;28;20453;-79
2023/10/27 04:24:24;;;;;;;31.57;28.47;;;;;;;;;;5051113;28;20442;-78
2023/10/27 04:26:52;;;;;;;29.77;27.30;;;;;;;;;;5051425;28;20953;-77
2023/10/27 04:29:19;;;;;;;31.40;28.50;;;;;;;;;;5051466;28;20891;-78
2023/10/27 04:31:46;;;;;;;34.83;31.67;;;;;;;;;;5051497;28;20454;-78
2023/10/27 04:34:15;;;;;;;30.57;27.80;;;;;;;;;;5050799;28;20516;-78
2023/10/27 04:36:43;;;;;;;30.50;27.80;;;;;;;;;;5051370;28;20549;-78
2023/10/27 04:39:10;;;;;;;31.80;28.97;;;;;;;;;;5051246;28;20573;-78
2023/10/27 04:41:37;;;;;;;31.90;29.20;;;;;;;;;;5050260;28;20955;-77
2023/10/27 04:44:05;;;;;;;32.30;29.30;;;;;;;;;;5050638;28;20454;-77
2023/10/27 04:46:32;;;;;;;30.00;27.43;;;;;;;;;;5051024;28;20842;-78
2023/10/27 04:49:00;;;;;;;30.10;27.50;;;;;;;;;;5051192;28;20451;-78
2023/10/27 04:51:29;;;;;;;28.83;26.63;;;;;;;;;;5050988;28;20504;-78
2023/10/27 04:53:56;;;;;;;30.17;27.70;;;;;;;;;;5050526;28;20462;-78
2023/10/27 04:56:23;;;;;;;29.10;26.90;;;;;;;;;;5050963;28;20453;-78
2023/10/27 04:58:50;;;;;;;29.50;27.23;;;;;;;;;;5050929;28;20446;-77
2023/10/27 05:01:22;;;;;;;28.90;26.70;;;;;;;;;;5050658;28;20958;-78
2023/10/27 05:03:49;;;;;;;29.47;27.07;;;;;;;;;;5049862;28;20474;-79
2023/10/27 05:06:16;;;;;;;29.77;27.23;;;;;;;;;;5050850;28;20497;-79
2023/10/27 05:08:45;;;;;;;29.80;27.50;;;;;;;;;;5050672;28;20462;-79
2023/10/27 05:11:12;;;;;;;31.07;28.57;;;;;;;;;;5050624;28;20469;-78
2023/10/27 05:13:39;;;;;;;29.30;27.00;;;;;;;;;;5050321;28;20536;-77
2023/10/27 05:16:07;;;;;;;30.87;28.20;;;;;;;;;;5050416;28;20443;-78
2023/10/27 05:18:34;;;;;;;29.73;27.43;;;;;;;;;;5050394;28;20466;-78
2023/10/27 05:21:01;;;;;;;31.50;28.67;;;;;;;;;;5050920;28;20454;-78
2023/10/27 05:23:28;;;;;;;30.73;28.10;;;;;;;;;;5050471;28;20450;-77
2023/10/27 05:25:56;;;;;;;32.47;29.77;;;;;;;;;;5050236;28;20494;-79
2023/10/27 05:28:23;;;;;;;30.03;27.63;;;;;;;;;;5050671;28;20465;-77
2023/10/27 05:30:51;;;;;;;31.80;29.17;;;;;;;;;;5050491;28;20453;-80
2023/10/27 05:33:18;;;;;;;30.07;27.50;;;;;;;;;;5050173;28;20443;-79
2023/10/27 05:35:45;;;;;;;31.60;28.80;;;;;;;;;;5049880;28;20451;-77
2023/10/27 05:38:14;;;;;;;29.67;27.37;;;;;;;;;;5050438;28;20484;-78
2023/10/27 05:40:41;;;;;;;28.50;26.17;;;;;;;;;;5050387;28;20528;-79
2023/10/27 05:43:09;;;;;;;28.73;26.27;;;;;;;;;;5050368;28;20451;-78
2023/10/27 05:45:36;;;;;;;28.60;26.30;;;;;;;;;;5049673;28;20461;-78
2023/10/27 05:48:03;;;;;;;29.90;27.50;;;;;;;;;;5050395;28;20524;-79
2023/10/27 05:50:31;;;;;;;29.77;27.43;;;;;;;;;;5050231;28;20423;-78
2023/10/27 05:52:58;;;;;;;29.73;27.20;;;;;;;;;;5050084;28;21029;-78
2023/10/27 05:55:25;;;;;;;30.53;27.90;;;;;;;;;;5049701;28;20443;-79
2023/10/27 05:57:52;;;;;;;30.67;28.07;;;;;;;;;;5050280;28;20561;-80
2023/10/27 06:00:21;;;;;;;30.60;27.80;;;;;;;;;;5049798;28;20996;-77
2023/10/27 06:02:52;;;;;;;29.97;27.30;;;;;;;;;;5050045;28;20897;-78
2023/10/27 06:05:19;;;;;;;31.87;29.17;;;;;;;;;;5053185;28;20466;-83
2023/10/27 06:07:46;;;;;;;31.03;28.37;;;;;;;;;;5058131;28;20491;-86
2023/10/27 06:10:13;;;;;;;29.60;27.10;;;;;;;;;;5065121;28;20550;-84
2023/10/27 06:12:40;;;;;;;28.97;26.53;;;;;;;;;;5059106;28;20820;-82
2023/10/27 06:15:08;;;;;;;31.73;29.20;;;;;;;;;;5058398;28;20450;-83
2023/10/27 06:17:37;;;;;;;30.63;28.13;;;;;;;;;;5058693;28;20463;-83
2023/10/27 06:20:04;;;;;;;29.47;26.97;;;;;;;;;;5058669;28;20443;-84
2023/10/27 06:22:31;;;;;;;30.10;27.70;;;;;;;;;;5060001;28;20989;-83
2023/10/27 06:24:58;;;;;;;31.10;28.60;;;;;;;;;;5061538;28;20829;-83
2023/10/27 06:27:26;;;;;;;29.30;26.80;;;;;;;;;;5062375;28;20490;-83
2023/10/27 06:29:53;;;;;;;30.47;27.87;;;;;;;;;;5061925;28;20450;-83
2023/10/27 06:32:22;;;;;;;31.20;28.50;;;;;;;;;;5062044;28;20450;-82
2023/10/27 06:34:50;;;;;;;30.07;27.57;;;;;;;;;;5062064;28;20472;-83
2023/10/27 06:37:17;;;;;;;29.93;27.53;;;;;;;;;;5061748;28;20463;-82
2023/10/27 06:39:44;;;;;;;31.27;28.47;;;;;;;;;;5077649;28;20453;-83
2023/10/27 06:42:11;;;;;;;31.77;29.17;;;;;;;;;;5081563;28;20446;-83
2023/10/27 06:44:38;;;;;;;34.20;31.13;;;;;;;;;;5081394;28;20452;-83
2023/10/27 06:47:05;;;;;;;32.20;29.10;;;;;;;;;;5081487;28;20497;-82
2023/10/27 06:49:32;;;;;;;29.93;27.43;;;;;;;;;;5081865;28;20450;-82
2023/10/27 06:52:01;;;;;;;32.00;29.30;;;;;;;;;;5081589;28;20991;-82
2023/10/27 06:54:28;;;;;;;32.20;29.47;;;;;;;;;;5081010;28;20452;-83
2023/10/27 06:56:55;;;;;;;32.20;29.50;;;;;;;;;;5081884;28;20546;-83
2023/10/27 06:59:22;;;;;;;32.10;29.57;;;;;;;;;;5081783;28;20866;-83
2023/10/27 07:01:52;;;;;;;32.23;29.30;;;;;;;;;;5081262;28;20452;-81
2023/10/27 07:04:19;;;;;;;32.40;29.53;;;;;;;;;;5081489;28;20483;-80
2023/10/27 07:06:46;;;;;;;32.43;29.30;;;;;;;;;;5081418;28;20846;-81
2023/10/27 07:09:14;;;;;;;31.87;29.10;;;;;;;;;;5080794;28;20442;-81
2023/10/27 07:11:41;;;;;;;31.10;28.53;;;;;;;;;;5074234;28;22290;-80
2023/10/27 07:14:08;;;;;;;32.27;29.37;;;;;;;;;;5059161;28;20462;-81
2023/10/27 07:16:35;;;;;;;33.10;30.07;;;;;;;;;;5060476;28;20473;-81
2023/10/27 07:19:03;;;;;;;32.30;29.43;;;;;;;;;;5060271;28;20446;-80
2023/10/27 07:21:30;;;;;;;31.57;29.07;;;;;;;;;;5060634;28;20450;-80
2023/10/27 07:23:57;;;;;;;31.47;28.80;;;;;;;;;;5060068;28;20438;-80
2023/10/27 07:26:26;;;;;;;31.17;28.57;;;;;;;;;;5059199;28;21049;-81
2023/10/27 07:28:53;;;;;;;31.70;28.90;;;;;;;;;;5059073;28;20505;-81
2023/10/27 07:31:20;;;;;;;30.13;27.53;;;;;;;;;;5058912;28;20462;-80
2023/10/27 07:33:47;;;;;;;30.70;28.10;;;;;;;;;;5058182;28;20467;-80
2023/10/27 07:36:14;;;;;;;30.50;28.10;;;;;;;;;;5059091;28;20454;-82
2023/10/27 07:38:41;;;;;;;32.37;29.77;;;;;;;;;;5058907;28;20478;-80
2023/10/27 07:41:08;;;;;;;31.13;28.57;;;;;;;;;;5059353;28;20446;-81
2023/10/27 07:43:37;;;;;;;30.27;27.70;;;;;;;;;;5059018;28;20446;-82
2023/10/27 07:46:04;;;;;;;33.30;30.47;;;;;;;;;;5057363;28;20494;-81
2023/10/27 07:48:32;;;;;;;31.13;28.63;;;;;;;;;;5057504;28;20502;-82
2023/10/27 07:50:59;;;;;;;32.20;29.20;;;;;;;;;;5058862;28;20450;-81
2023/10/27 07:53:26;;;;;;;30.67;28.13;;;;;;;;;;5058352;28;20461;-81
2023/10/27 07:55:53;;;;;;;31.47;28.80;;;;;;;;;;5058557;28;20876;-81
2023/10/27 07:58:21;;;;;;;30.90;28.20;;;;;;;;;;5058632;28;20441;-81
2023/10/27 08:00:51;;;;;;;31.10;28.40;;;;;;;;;;5058080;28;20477;-80
2023/10/27 08:03:18;;;;;;;31.67;28.37;;;;;;;;;;5058045;28;20787;-81
2023/10/27 08:05:45;;;;;;;33.10;30.10;;;;;;;;;;5058471;28;20458;-81
2023/10/27 08:08:12;;;;;;;32.80;29.50;;;;;;;;;;5059440;28;20486;-81
2023/10/27 08:10:39;;;;;;;33.23;30.20;;;;;;;;;;5057565;28;20465;-83
2023/10/27 08:13:06;;;;;;;32.43;29.30;;;;;;;;;;5059183;28;20961;-82
2023/10/27 08:15:33;;;;;;;31.73;28.90;;;;;;;;;;5057920;28;20450;-82
2023/10/27 08:18:01;;;;;;;31.03;28.23;;;;;;;;;;5058469;28;20470;-80
2023/10/27 08:20:29;;;;;;;32.93;30.00;;;;;;;;;;5057938;28;20504;-80
2023/10/27 08:22:56;;;;;;;32.00;29.20;;;;;;;;;;5057033;28;20446;-78
2023/10/27 08:25:23;;;;;;;31.33;28.67;;;;;;;;;;5051103;28;20939;-77
2023/10/27 08:27:50;;;;;;;32.70;29.70;;;;;;;;;;5051541;28;20979;-76
2023/10/27 08:30:17;;;;;;;31.50;28.90;;;;;;;;;;5051796;28;20435;-74
2023/10/27 08:32:44;;;;;;;31.17;28.37;;;;;;;;;;5051018;28;20466;-74
2023/10/27 08:35:13;;;;;;;32.00;29.43;;;;;;;;;;5050853;28;20492;-76
2023/10/27 08:37:40;;;;;;;30.30;27.90;;;;;;;;;;5051450;28;20497;-74
2023/10/27 08:40:11;;;;;;;32.50;29.77;;;;;;;;;;5056409;28;20458;-75
2023/10/27 08:42:39;;;;;;;32.30;29.50;;;;;;;;;;5071393;28;20422;-75
2023/10/27 08:45:07;;;;;;;34.13;30.90;;;;;;;;;;5070839;28;20465;-78
2023/10/27 08:47:36;;;;;;;30.60;28.13;;;;;;;;;;5071872;28;20492;-78
2023/10/27 08:50:04;;;;;;;31.07;28.57;;;;;;;;;;5071102;28;20466;-78
2023/10/27 08:52:32;;;;;;;31.00;28.37;;;;;;;;;;5071524;28;20434;-78
2023/10/27 08:55:01;;;;;;;32.03;29.43;;;;;;;;;;5070211;28;20559;-78
2023/10/27 08:57:28;;;;;;;31.50;28.70;;;;;;;;;;5052116;28;20478;-77
2023/10/27 08:59:56;;;;;;;31.57;29.03;;;;;;;;;;5069263;28;20460;-78
2023/10/27 09:02:30;;;;;;;30.43;27.87;;;;;;;;;;5053916;28;20549;-78
2023/10/27 09:05:01;;;;;;;30.80;28.10;;;;;;;;;;5050968;28;20537;-78
2023/10/27 09:07:28;;;;;;;31.03;27.93;;;;;;;;;;5052301;28;20501;-78
2023/10/27 09:09:57;;;;;;;31.83;29.17;;;;;;;;;;5051060;28;21205;-78
2023/10/27 09:12:26;;;;;;;32.13;28.83;;;;;;;;;;5050321;28;20489;-77
2023/10/27 09:14:59;;;;;;;31.37;28.57;;;;;;;;;;5050621;28;20489;-79
2023/10/27 09:17:26;;;;;;;32.67;29.47;;;;;;;;;;5051273;28;20557;-79
2023/10/27 09:20:03;;;;;;;33.10;29.90;;;;;;;;;;5051207;28;20939;-76
2023/10/27 09:22:30;;;;;;;33.40;30.20;;;;;;;;;;5050759;28;20434;-77
2023/10/27 09:25:13;;;;;;;34.00;30.83;;;;;;;;;;5049285;28;20449;-78
2023/10/27 09:27:44;;;;;;;34.37;30.90;;;;;;;;;;5050435;28;20577;-76
2023/10/27 09:30:12;;;;;;;31.77;28.87;;;;;;;;;;5050545;28;20457;-77
2023/10/27 09:32:40;;;;;;;34.90;31.57;;;;;;;;;;5050491;28;20526;-77
2023/10/27 09:35:13;;;;;;;33.97;30.57;;;;;;;;;;5050153;28;20500;-77
2023/10/27 09:37:41;;;;;;;34.20;31.03;;;;;;;;;;5050476;28;20604;-77
2023/10/27 09:40:11;;;;;;;35.63;32.10;;;;;;;;;;5050443;28;20489;-77
2023/10/27 09:42:38;;;;;;;34.53;31.10;;;;;;;;;;5050226;28;20481;-77
2023/10/27 09:45:08;;;;;;;35.73;32.20;;;;;;;;;;5049529;28;20438;-78
2023/10/27 09:47:36;;;;;;;35.40;31.80;;;;;;;;;;5049981;28;20490;-77
2023/10/27 09:50:06;;;;;;;38.97;34.83;;;;;;;;;;5050173;28;20481;-76
2023/10/27 09:52:33;;;;;;;38.10;33.43;;;;;;;;;;5050446;28;20434;-77
2023/10/27 09:55:02;;;;;;;39.43;35.00;;;;;;;;;;5049642;28;20462;-76
2023/10/27 09:57:31;;;;;;;36.73;32.90;;;;;;;;;;5049348;28;20466;-78
2023/10/27 09:59:59;;;;;;;37.40;33.60;;;;;;;;;;5049829;28;20938;-76
2023/10/27 10:02:28;;;;;;;40.40;33.90;;;;;;;;;;5050103;28;20461;-77
2023/10/27 10:05:02;;;;;;;38.57;34.47;;;;;;;;;;5049286;28;20943;-77
2023/10/27 10:07:33;;;;;;;37.13;33.20;;;;;;;;;;5049581;28;20482;-77
2023/10/27 10:10:00;;;;;;;34.43;30.93;;;;;;;;;;5050161;28;20457;-76
2023/10/27 10:12:27;;;;;;;36.00;32.33;;;;;;;;;;5049976;28;20486;-77
2023/10/27 10:14:59;;;;;;;42.30;33.30;;;;;;;;;;5049908;28;20450;-79
2023/10/27 10:17:39;;;;;;;36.60;32.70;;;;;;;;;;5050089;28;20536;-78
2023/10/27 10:20:06;;;;;;;35.70;32.27;;;;;;;;;;5050101;28;20449;-78
2023/10/27 10:22:52;;;;;;;35.47;32.07;;;;;;;;;;5049558;28;20497;-77
2023/10/27 10:25:26;;;;;;;35.90;31.77;;;;;;;;;;5049241;28;20474;-77
2023/10/27 10:28:22;;;;;;;36.40;32.70;;;;;;;;;;5049768;28;20998;-77
2023/10/27 10:31:11;;;;;;;32.47;29.17;;;;;;;;;;5050292;28;20431;-77
2023/10/27 10:33:38;;;;;;;34.27;30.80;;;;;;;;;;5049852;28;20447;-77
2023/10/27 10:36:29;;;;;;;33.43;30.43;;;;;;;;;;5049181;28;20867;-76
2023/10/27 10:39:00;;;;;;;36.40;32.33;;;;;;;;;;5034328;28;20450;-77
2023/10/27 10:41:52;;;;;;;37.40;31.37;;;;;;;;;;5049964;28;20473;-78
2023/10/27 10:44:19;;;;;;;32.70;29.43;;;;;;;;;;5048854;28;20580;-77
2023/10/27 10:46:49;;;;;;;35.67;31.80;;;;;;;;;;5049743;28;20849;-77
2023/10/27 10:49:23;;;;;;;35.00;31.47;;;;;;;;;;5049432;28;20517;-78
2023/10/27 10:51:52;;;;;;;36.27;32.47;;;;;;;;;;5049688;28;20478;-77
2023/10/27 10:54:20;;;;;;;34.90;31.57;;;;;;;;;;5048821;28;20950;-77
2023/10/27 10:56:47;;;;;;;36.70;32.77;;;;;;;;;;5049576;28;20532;-77
2023/10/27 10:59:21;;;;;;;36.63;33.00;;;;;;;;;;5049344;28;20927;-78
2023/10/27 11:01:55;;;;;;;36.57;33.07;;;;;;;;;;5049373;28;21166;-77
2023/10/27 11:04:28;;;;;;;35.20;31.73;;;;;;;;;;5048763;28;20997;-78
2023/10/27 11:06:58;;;;;;;42.07;37.77;;;;;;;;;;5049599;28;20463;-77
2023/10/27 11:09:25;;;;;;;45.37;36.57;;;;;;;;;;5052223;28;20888;-78
2023/10/27 11:11:52;;;;;;;35.50;32.10;;;;;;;;;;5052817;28;20508;-78
2023/10/27 11:14:19;;;;;;;39.97;36.43;;;;;;;;;;5052754;28;20790;-77
2023/10/27 11:16:55;;;;;;;36.20;32.93;;;;;;;;;;5054809;28;20501;-75
2023/10/27 11:19:24;;;;;;;38.17;34.33;;;;;;;;;;5058874;28;20455;-79
2023/10/27 11:21:54;;;;;;;32.80;29.60;;;;;;;;;;5057094;28;20567;-78
2023/10/27 11:24:22;;;;;;;35.37;31.80;;;;;;;;;;5072889;28;20449;-78
2023/10/27 11:26:49;;;;;;;34.07;30.67;;;;;;;;;;5068571;28;20525;-78
2023/10/27 11:29:16;;;;;;;31.20;28.47;;;;;;;;;;5052567;28;20498;-77
2023/10/27 11:31:45;;;;;;;33.77;30.17;;;;;;;;;;5054965;28;20823;-78
2023/10/27 11:34:13;;;;;;;36.20;32.63;;;;;;;;;;5057592;28;20455;-81
2023/10/27 11:36:42;;;;;;;32.80;29.60;;;;;;;;;;5057053;28;20466;-79
2023/10/27 11:39:13;;;;;;;31.57;28.77;;;;;;;;;;5056652;28;20473;-79
2023/10/27 11:41:40;;;;;;;34.13;30.77;;;;;;;;;;5058111;28;20475;-79
2023/10/27 11:44:07;;;;;;;29.70;27.00;;;;;;;;;;5056317;28;20470;-80
2023/10/27 11:46:34;;;;;;;33.33;29.97;;;;;;;;;;5057164;28;20421;-79
2023/10/27 11:49:01;;;;;;;30.60;27.90;;;;;;;;;;5055681;28;20572;-80
2023/10/27 11:51:29;;;;;;;32.73;29.73;;;;;;;;;;5057449;28;20458;-81
2023/10/27 11:53:58;;;;;;;30.40;27.60;;;;;;;;;;5057365;28;20458;-80
2023/10/27 11:56:25;;;;;;;30.53;27.67;;;;;;;;;;5057834;28;20955;-81
2023/10/27 11:58:52;;;;;;;31.23;28.33;;;;;;;;;;5065405;28;20459;-81
2023/10/27 12:01:19;;;;;;;32.60;29.07;;;;;;;;;;5066204;28;20446;-81
2023/10/27 12:03:47;;;;;;;31.07;28.10;;;;;;;;;;5065480;28;20459;-82
2023/10/27 12:06:14;;;;;;;30.70;28.17;;;;;;;;;;5064894;28;20451;-81
2023/10/27 12:08:41;;;;;;;31.10;28.20;;;;;;;;;;5065138;28;20514;-82
2023/10/27 12:11:10;;;;;;;33.37;30.27;;;;;;;;;;5065384;28;20489;-82
2023/10/27 12:13:37;;;;;;;31.40;28.57;;;;;;;;;;5066285;28;20817;-82
2023/10/27 12:16:04;;;;;;;30.77;27.83;;;;;;;;;;5066141;28;20454;-82
2023/10/27 12:18:32;;;;;;;31.07;28.33;;;;;;;;;;5064999;28;20474;-82
2023/10/27 12:21:01;;;;;;;32.30;29.33;;;;;;;;;;5064048;28;20443;-82
2023/10/27 12:23:29;;;;;;;28.47;25.80;;;;;;;;;;5065612;28;20435;-82
2023/10/27 12:25:57;;;;;;;29.00;26.70;;;;;;;;;;5061112;28;20443;-81
2023/10/27 12:28:27;;;;;;;30.10;27.60;;;;;;;;;;5067442;28;20497;-81
2023/10/27 12:30:54;;;;;;;29.53;27.40;;;;;;;;;;5063187;28;20832;-81
2023/10/27 12:33:21;;;;;;;28.50;26.23;;;;;;;;;;5080286;28;20454;-81
2023/10/27 12:35:49;;;;;;;27.90;25.63;;;;;;;;;;5078007;28;20482;-81
2023/10/27 12:38:17;;;;;;;29.73;27.23;;;;;;;;;;5067979;28;20553;-77
2023/10/27 12:40:45;;;;;;;29.27;26.73;;;;;;;;;;5071053;28;20453;-78
2023/10/27 12:43:12;;;;;;;28.33;26.17;;;;;;;;;;5071379;28;20445;-77
2023/10/27 12:45:40;;;;;;;27.27;25.00;;;;;;;;;;5070685;28;20453;-79
2023/10/27 12:48:07;;;;;;;28.27;25.90;;;;;;;;;;5072377;28;20746;-78
2023/10/27 12:50:35;;;;;;;28.03;25.80;;;;;;;;;;5071774;28;20428;-78
2023/10/27 12:53:02;;;;;;;28.40;26.00;;;;;;;;;;5071915;28;20814;-78
2023/10/27 12:55:30;;;;;;;27.60;25.17;;;;;;;;;;5070803;28;20481;-79
2023/10/27 12:57:58;;;;;;;28.70;26.23;;;;;;;;;;5071895;28;20519;-79
2023/10/27 13:00:27;;;;;;;26.67;24.80;;;;;;;;;;5073915;28;20477;-81
2023/10/27 13:02:56;;;;;;;27.90;25.53;;;;;;;;;;5078322;28;20429;-82
2023/10/27 13:05:23;;;;;;;26.43;24.20;;;;;;;;;;5075089;28;20504;-81
2023/10/27 13:07:51;;;;;;;28.93;26.67;;;;;;;;;;5077671;28;20501;-80
2023/10/27 13:10:18;;;;;;;27.00;24.90;;;;;;;;;;5079178;28;20459;-85
2023/10/27 13:12:45;;;;;;;26.93;25.03;;;;;;;;;;5061360;28;20986;-78
2023/10/27 13:15:13;;;;;;;23.57;22.17;;;;;;;;;;5050731;28;20455;-79
2023/10/27 13:17:40;;;;;;;24.93;23.13;;;;;;;;;;5052503;28;20916;-82
2023/10/27 13:20:12;;;;;;;26.23;24.43;;;;;;;;;;5050957;28;20439;-79
2023/10/27 13:22:39;;;;;;;26.83;24.77;;;;;;;;;;5050788;28;20872;-77
2023/10/27 13:25:06;;;;;;;32.10;29.83;;;;;;;;;;5049496;28;20473;-79
2023/10/27 13:27:33;;;;;;;28.57;26.40;;;;;;;;;;5050924;28;20858;-77
2023/10/27 13:30:04;;;;;;;28.50;26.53;;;;;;;;;;5051236;28;20482;-76
2023/10/27 13:32:31;;;;;;;27.10;25.20;;;;;;;;;;5050789;28;20446;-79
2023/10/27 13:34:58;;;;;;;26.03;24.30;;;;;;;;;;5050535;28;20474;-78
2023/10/27 13:37:28;;;;;;;28.33;24.07;;;;;;;;;;5050411;28;20477;-77
2023/10/27 13:39:56;;;;;;;26.27;24.40;;;;;;;;;;5053278;28;20443;-81
2023/10/27 13:42:23;;;;;;;25.93;24.23;;;;;;;;;;5056483;28;20457;-83
2023/10/27 13:44:50;;;;;;;27.97;25.77;;;;;;;;;;5055102;28;20971;-81
2023/10/27 13:47:17;;;;;;;26.90;25.00;;;;;;;;;;5056989;28;20466;-81
2023/10/27 13:49:45;;;;;;;28.07;26.20;;;;;;;;;;5055987;28;20962;-82
2023/10/27 13:52:12;;;;;;;28.37;26.37;;;;;;;;;;5054181;28;20450;-79
2023/10/27 13:54:41;;;;;;;25.20;23.20;;;;;;;;;;5051380;28;20489;-78
2023/10/27 13:57:11;;;;;;;26.37;24.27;;;;;;;;;;5050612;28;20491;-77
2023/10/27 13:59:40;;;;;;;26.27;24.47;;;;;;;;;;5051776;28;20432;-79
2023/10/27 14:02:07;;;;;;;29.03;26.70;;;;;;;;;;5051034;28;20447;-79
2023/10/27 14:04:35;;;;;;;27.30;25.27;;;;;;;;;;5050286;28;20823;-78
2023/10/27 14:07:02;;;;;;;32.20;29.33;;;;;;;;;;5051876;28;20446;-80
2023/10/27 14:09:30;;;;;;;30.93;28.13;;;;;;;;;;5056122;28;20489;-81
2023/10/27 14:12:00;;;;;;;28.33;26.23;;;;;;;;;;5053486;28;20450;-80
2023/10/27 14:14:27;;;;;;;28.63;26.23;;;;;;;;;;5054400;28;20470;-80
2023/10/27 14:16:54;;;;;;;31.10;28.67;;;;;;;;;;5053367;28;20477;-81
2023/10/27 14:19:21;;;;;;;31.53;29.00;;;;;;;;;;5053727;28;20445;-80
2023/10/27 14:21:48;;;;;;;30.10;27.93;;;;;;;;;;5054640;28;20445;-88